Time;durP1;ratioP1;P1;durP2;ratioP2;P2;SDS_P1;SDS_P2;PMS_P1;PMS_P2;Temp;Humidity;BMP_temperature;BMP_pressure;BME280_temperature;BME280_humidity;BME280_pressure;Samples;Min_cycle;Max_cycle;Signal;HPM_P1;HPM_P2
2022/07/06 00:01:38;;;;;;;0.00;0.00;;;14.10;99.90;;;;;;5055475;28;20079;-83
2022/07/06 00:04:05;;;;;;;0.00;0.00;;;14.10;99.90;;;;;;5057463;28;20467;-83
2022/07/06 00:06:31;;;;;;;0.20;0.20;;;14.10;99.90;;;;;;5074078;28;20180;-83
2022/07/06 00:08:57;;;;;;;0.10;0.10;;;14.20;99.90;;;;;;5076648;28;20105;-83
2022/07/06 00:11:23;;;;;;;0.10;0.10;;;14.20;99.90;;;;;;5076562;28;20057;-86
2022/07/06 00:13:48;;;;;;;0.08;0.08;;;14.10;99.90;;;;;;5060100;28;20408;-86
2022/07/06 00:16:14;;;;;;;0.10;0.10;;;14.10;99.90;;;;;;5076429;28;20484;-86
2022/07/06 00:18:40;;;;;;;0.00;0.00;;;14.10;99.90;;;;;;5076418;28;20040;-86
2022/07/06 00:21:06;;;;;;;0.00;0.00;;;14.10;99.90;;;;;;5059769;28;20051;-86
2022/07/06 00:23:31;;;;;;;0.00;0.00;;;14.10;99.90;;;;;;5059492;28;20046;-86
2022/07/06 00:25:57;;;;;;;0.10;0.10;;;14.20;99.90;;;;;;5042735;28;20040;-86
2022/07/06 00:28:26;;;;;;;0.10;0.10;;;14.20;99.90;;;;;;5059576;28;20043;-86
2022/07/06 00:30:52;;;;;;;0.10;0.10;;;14.20;99.90;;;;;;5076126;28;20490;-86
2022/07/06 00:33:18;;;;;;;0.20;0.20;;;14.20;99.90;;;;;;5059899;28;20044;-86
2022/07/06 00:35:44;;;;;;;0.00;0.00;;;14.20;99.90;;;;;;5042887;28;20402;-86
2022/07/06 00:38:10;;;;;;;0.10;0.10;;;14.20;99.90;;;;;;5076136;28;20089;-86
2022/07/06 00:40:35;;;;;;;0.00;0.00;;;14.20;99.90;;;;;;5059492;28;20122;-86
2022/07/06 00:43:01;;;;;;;0.10;0.10;;;14.20;99.90;;;;;;5076041;28;20044;-82
2022/07/06 00:45:27;;;;;;;0.00;0.00;;;14.20;99.90;;;;;;5075995;28;20079;-82
2022/07/06 00:47:52;;;;;;;0.10;0.10;;;14.20;99.90;;;;;;5059205;28;20040;-82
2022/07/06 00:50:20;;;;;;;0.22;0.22;;;14.30;99.90;;;;;;5075856;28;20036;-82
2022/07/06 00:53:06;;;;;;;0.20;0.20;;;14.30;99.90;;;;;;5076042;28;20040;-82
2022/07/06 00:55:34;;;;;;;0.00;0.00;;;14.30;99.90;;;;;;5059388;28;20094;-82
2022/07/06 00:58:02;;;;;;;0.10;0.10;;;14.30;99.90;;;;;;5075654;28;20079;-82
2022/07/06 01:00:28;;;;;;;0.00;0.00;;;14.40;99.90;;;;;;5075705;28;20572;-82
2022/07/06 01:02:54;;;;;;;0.10;0.10;;;14.40;99.90;;;;;;5075614;28;20046;-82
2022/07/06 01:05:20;;;;;;;0.10;0.10;;;14.40;99.90;;;;;;5075905;28;20375;-82
2022/07/06 01:07:49;;;;;;;0.00;0.00;;;14.40;99.90;;;;;;5075612;28;20028;-82
2022/07/06 01:10:17;;;;;;;0.00;0.00;;;14.40;99.90;;;;;;5075597;28;20040;-82
2022/07/06 01:12:43;;;;;;;0.00;0.00;;;14.40;99.90;;;;;;5058728;28;20036;-82
2022/07/06 01:15:21;;;;;;;0.05;0.05;;;14.40;99.90;;;;;;5075651;28;20043;-82
2022/07/06 01:17:48;;;;;;;0.00;0.00;;;14.40;99.90;;;;;;5075874;28;20074;-86
2022/07/06 01:20:24;;;;;;;0.10;0.10;;;14.40;99.90;;;;;;5075508;28;20036;-86
2022/07/06 01:22:52;;;;;;;0.13;0.13;;;14.40;99.90;;;;;;5075665;28;20044;-86
2022/07/06 01:25:18;;;;;;;0.10;0.10;;;14.40;99.90;;;;;;5042204;28;20074;-86
2022/07/06 01:27:44;;;;;;;0.00;0.00;;;14.40;99.90;;;;;;5073648;28;20493;-86
2022/07/06 01:30:15;;;;;;;0.00;0.00;;;14.40;99.90;;;;;;5075164;28;20056;-86
2022/07/06 01:32:41;;;;;;;0.00;0.00;;;14.40;99.90;;;;;;5075635;28;20040;-86
2022/07/06 01:35:13;;;;;;;0.08;0.08;;;14.40;99.90;;;;;;5058390;28;20485;-86
2022/07/06 01:37:40;;;;;;;0.00;0.00;;;14.40;99.90;;;;;;5058235;28;20036;-86
2022/07/06 01:40:07;;;;;;;0.00;0.00;;;14.30;99.90;;;;;;5075256;28;20036;-86
2022/07/06 01:42:34;;;;;;;0.00;0.00;;;14.30;99.90;;;;;;5058785;28;20044;-86
2022/07/06 01:45:00;;;;;;;0.05;0.05;;;14.20;99.90;;;;;;5058503;28;20067;-86
2022/07/06 01:47:26;;;;;;;0.05;0.05;;;14.20;99.90;;;;;;5058351;28;20039;-86
2022/07/06 01:49:52;;;;;;;0.00;0.00;;;14.20;99.90;;;;;;5075295;28;20058;-85
2022/07/06 01:52:18;;;;;;;0.00;0.00;;;14.20;99.90;;;;;;5058455;28;20046;-85
2022/07/06 01:54:44;;;;;;;0.00;0.00;;;14.20;99.90;;;;;;5058434;28;20044;-85
2022/07/06 01:57:10;;;;;;;0.10;0.10;;;14.20;99.90;;;;;;5058284;28;20079;-85
2022/07/06 01:59:36;;;;;;;0.10;0.10;;;14.20;99.90;;;;;;5058552;28;20075;-84
2022/07/06 02:02:02;;;;;;;0.00;0.00;;;14.20;99.90;;;;;;5058430;28;20126;-85
2022/07/06 02:04:28;;;;;;;0.08;0.08;;;14.20;99.90;;;;;;5075527;28;20105;-85
2022/07/06 02:06:53;;;;;;;0.00;0.00;;;14.20;99.90;;;;;;5041634;28;20040;-84
2022/07/06 02:09:19;;;;;;;0.20;0.20;;;14.20;99.90;;;;;;5058279;28;20048;-85
2022/07/06 02:11:45;;;;;;;0.00;0.00;;;14.20;99.90;;;;;;5058079;28;20040;-85
2022/07/06 02:14:10;;;;;;;0.00;0.00;;;14.30;99.90;;;;;;5074959;28;20040;-84
2022/07/06 02:16:37;;;;;;;0.00;0.00;;;14.30;99.90;;;;;;5075066;28;20135;-84
2022/07/06 02:19:02;;;;;;;0.10;0.10;;;14.30;99.90;;;;;;5058561;28;20040;-85
2022/07/06 02:21:28;;;;;;;0.22;0.22;;;14.30;99.90;;;;;;5075209;28;20504;-85
2022/07/06 02:23:54;;;;;;;0.00;0.00;;;14.40;99.90;;;;;;5075139;28;20385;-84
2022/07/06 02:26:20;;;;;;;0.00;0.00;;;14.40;99.90;;;;;;5056667;28;20043;-83
2022/07/06 02:28:47;;;;;;;0.05;0.05;;;14.40;99.90;;;;;;5057743;28;20044;-83
2022/07/06 02:31:13;;;;;;;0.05;0.05;;;14.40;99.90;;;;;;5074585;28;20478;-83
2022/07/06 02:33:40;;;;;;;0.00;0.00;;;14.40;99.90;;;;;;5074751;28;20115;-83
2022/07/06 02:36:06;;;;;;;0.30;0.30;;;14.40;99.90;;;;;;5074581;28;20040;-83
2022/07/06 02:38:31;;;;;;;0.03;0.03;;;14.30;99.90;;;;;;5074787;28;20229;-83
2022/07/06 02:40:57;;;;;;;0.00;0.00;;;14.30;99.90;;;;;;5074927;28;20086;-85
2022/07/06 02:43:23;;;;;;;0.10;0.10;;;14.30;99.90;;;;;;5041608;28;20044;-85
2022/07/06 02:45:48;;;;;;;0.00;0.00;;;14.30;99.90;;;;;;5041339;28;20401;-85
2022/07/06 02:48:14;;;;;;;0.10;0.10;;;14.30;99.90;;;;;;5060028;28;20032;-85
2022/07/06 02:50:40;;;;;;;0.00;0.00;;;14.20;99.90;;;;;;5061509;28;20153;-85
2022/07/06 02:53:05;;;;;;;0.00;0.00;;;14.20;99.90;;;;;;5044993;28;20039;-85
2022/07/06 02:55:31;;;;;;;0.00;0.00;;;14.20;99.90;;;;;;5078342;28;20036;-85
2022/07/06 02:57:57;;;;;;;0.20;0.20;;;14.10;99.90;;;;;;5061562;28;20043;-85
2022/07/06 03:00:23;;;;;;;0.00;0.00;;;14.10;99.90;;;;;;5045022;28;20036;-85
2022/07/06 03:02:48;;;;;;;0.00;0.00;;;14.00;99.90;;;;;;5077976;28;20036;-85
2022/07/06 03:05:14;;;;;;;0.13;0.13;;;13.90;99.90;;;;;;5061608;28;20036;-85
2022/07/06 03:07:40;;;;;;;0.00;0.00;;;13.70;99.90;;;;;;5077796;28;20129;-85
2022/07/06 03:10:06;;;;;;;0.00;0.00;;;13.60;99.90;;;;;;5061542;28;20050;-85
2022/07/06 03:12:32;;;;;;;0.03;0.03;;;13.50;99.90;;;;;;5077743;28;20128;-85
2022/07/06 03:14:58;;;;;;;0.00;0.00;;;13.30;99.90;;;;;;5061428;28;20123;-85
2022/07/06 03:17:23;;;;;;;0.00;0.00;;;13.00;99.90;;;;;;5060918;28;20044;-86
2022/07/06 03:19:49;;;;;;;0.00;0.00;;;13.00;99.90;;;;;;5061060;28;20057;-85
2022/07/06 03:22:15;;;;;;;0.00;0.00;;;12.90;99.90;;;;;;5060855;28;20097;-85
2022/07/06 03:24:41;;;;;;;10.98;0.90;;;12.80;99.90;;;;;;5060898;28;20101;-86
2022/07/06 03:27:06;;;;;;;0.10;0.10;;;12.70;99.90;;;;;;5076145;28;20040;-85
2022/07/06 03:29:32;;;;;;;0.10;0.10;;;12.40;99.90;;;;;;5073741;28;20053;-85
2022/07/06 03:31:58;;;;;;;0.15;0.15;;;12.40;99.90;;;;;;5040918;28;20118;-85
2022/07/06 03:34:24;;;;;;;0.00;0.00;;;12.20;99.90;;;;;;5057768;28;20052;-85
2022/07/06 03:36:52;;;;;;;0.00;0.00;;;12.10;99.90;;;;;;5057953;28;20372;-85
2022/07/06 03:39:18;;;;;;;0.00;0.00;;;12.00;99.90;;;;;;5073945;28;20106;-85
2022/07/06 03:41:44;;;;;;;0.00;0.00;;;11.90;99.90;;;;;;5057532;28;20040;-85
2022/07/06 03:44:10;;;;;;;0.00;0.00;;;11.70;99.90;;;;;;5057580;28;20036;-85
2022/07/06 03:46:35;;;;;;;0.00;0.00;;;11.70;99.90;;;;;;5040733;28;20032;-85
2022/07/06 03:49:01;;;;;;;0.10;0.10;;;11.60;99.90;;;;;;5057175;28;20036;-85
2022/07/06 03:51:27;;;;;;;0.10;0.10;;;11.50;99.90;;;;;;5057106;28;20123;-85
2022/07/06 03:53:52;;;;;;;0.00;0.00;;;11.50;99.90;;;;;;5057064;28;20044;-86
2022/07/06 03:56:32;;;;;;;0.00;0.00;;;11.40;99.90;;;;;;5073866;28;20045;-86
2022/07/06 03:59:00;;;;;;;0.00;0.00;;;11.40;99.90;;;;;;5041533;28;20371;-85
2022/07/06 04:01:26;;;;;;;0.10;0.10;;;11.30;99.90;;;;;;5073566;28;20048;-85
2022/07/06 04:03:52;;;;;;;0.00;0.00;;;11.30;99.90;;;;;;5056993;28;20127;-84
2022/07/06 04:06:18;;;;;;;0.10;0.10;;;11.30;99.90;;;;;;5056870;28;20128;-83
2022/07/06 04:08:44;;;;;;;0.10;0.10;;;11.20;99.90;;;;;;5073502;28;20089;-83
2022/07/06 04:11:09;;;;;;;0.00;0.00;;;11.30;99.90;;;;;;5073338;28;20137;-83
2022/07/06 04:13:35;;;;;;;0.10;0.10;;;11.20;99.90;;;;;;5073239;28;20044;-83
2022/07/06 04:16:01;;;;;;;0.00;0.00;;;11.20;99.90;;;;;;5073453;28;20044;-83
2022/07/06 04:18:26;;;;;;;0.30;0.30;;;11.30;99.90;;;;;;5073259;28;20486;-83
2022/07/06 04:20:52;;;;;;;0.00;0.00;;;11.30;99.90;;;;;;5056801;28;20508;-83
2022/07/06 04:23:18;;;;;;;0.10;0.10;;;11.40;99.90;;;;;;5073109;28;20076;-83
2022/07/06 04:25:44;;;;;;;0.03;0.03;;;11.50;99.90;;;;;;5038675;28;20075;-83
2022/07/06 04:28:09;;;;;;;0.00;0.00;;;11.50;99.90;;;;;;5056879;28;20043;-83
2022/07/06 04:30:35;;;;;;;0.00;0.00;;;11.80;99.90;;;;;;5076310;28;20047;-83
2022/07/06 04:33:01;;;;;;;0.00;0.00;;;12.00;99.90;;;;;;5076446;28;20036;-83
2022/07/06 04:35:27;;;;;;;0.00;0.00;;;12.30;99.90;;;;;;5059542;28;20444;-83
2022/07/06 04:37:55;;;;;;;0.10;0.10;;;12.50;99.90;;;;;;5076163;28;20118;-84
2022/07/06 04:40:21;;;;;;;0.30;0.30;;;12.90;99.90;;;;;;5042970;28;20533;-84
2022/07/06 04:42:47;;;;;;;0.00;0.00;;;12.90;99.90;;;;;;5059535;28;20122;-85
2022/07/06 04:45:13;;;;;;;0.00;0.00;;;13.40;99.90;;;;;;5062751;22;20044;-84
2022/07/06 04:47:38;;;;;;;0.03;0.03;;;13.20;99.90;;;;;;5036005;28;20052;-85
2022/07/06 04:50:05;;;;;;;0.22;0.20;;;13.30;99.90;;;;;;5052570;28;20087;-85
2022/07/06 04:52:31;;;;;;;0.10;0.10;;;13.40;99.90;;;;;;5052569;28;20047;-85
2022/07/06 04:54:57;;;;;;;0.10;0.10;;;13.40;99.90;;;;;;5052565;28;20124;-83
2022/07/06 04:57:25;;;;;;;0.00;0.00;;;13.50;99.90;;;;;;5035872;28;20127;-83
2022/07/06 04:59:52;;;;;;;0.00;0.00;;;13.50;99.90;;;;;;5052490;28;20083;-83
2022/07/06 05:02:17;;;;;;;0.08;0.08;;;13.60;99.90;;;;;;5052644;28;20181;-83
2022/07/06 05:04:43;;;;;;;0.00;0.00;;;13.60;99.90;;;;;;5052284;28;20041;-83
2022/07/06 05:07:09;;;;;;;0.10;0.10;;;13.10;99.90;;;;;;5035571;28;20041;-83
2022/07/06 05:09:35;;;;;;;0.00;0.00;;;13.70;99.90;;;;;;5052423;28;20041;-85
2022/07/06 05:12:03;;;;;;;0.00;0.00;;;13.80;99.90;;;;;;5019713;28;20544;-85
2022/07/06 05:14:29;;;;;;;0.10;0.10;;;13.80;99.90;;;;;;5065646;28;20125;-85
2022/07/06 05:16:58;;;;;;;0.10;0.10;;;13.80;99.90;;;;;;5055516;28;20040;-86
2022/07/06 05:19:24;;;;;;;0.10;0.10;;;13.80;99.90;;;;;;5039540;28;20036;-85
2022/07/06 05:21:59;;;;;;;0.10;0.10;;;13.80;99.90;;;;;;5055733;28;20036;-85
2022/07/06 05:24:25;;;;;;;0.07;0.07;;;13.70;99.90;;;;;;5055525;28;20051;-85
2022/07/06 05:26:50;;;;;;;1.13;0.30;;;13.80;99.90;;;;;;5056877;28;20721;-83
2022/07/06 05:29:16;;;;;;;0.10;0.10;;;13.90;99.90;;;;;;5035400;28;20043;-83
2022/07/06 05:31:42;;;;;;;0.10;0.10;;;14.00;99.90;;;;;;5035173;28;20048;-83
2022/07/06 05:34:07;;;;;;;0.00;0.00;;;14.20;99.90;;;;;;5019122;28;20090;-83
2022/07/06 05:36:33;;;;;;;0.00;0.00;;;14.60;99.90;;;;;;5051872;28;20036;-83
2022/07/06 05:39:02;;;;;;;0.00;0.00;;;15.00;99.90;;;;;;5035734;28;20045;-83
2022/07/06 05:41:27;;;;;;;0.10;0.10;;;15.30;99.90;;;;;;5051763;28;20148;-83
2022/07/06 05:43:53;;;;;;;0.15;0.13;;;15.40;99.90;;;;;;5051710;28;20510;-85
2022/07/06 05:46:19;;;;;;;0.00;0.00;;;15.50;99.90;;;;;;5051624;28;20128;-85
2022/07/06 05:51:28;;;;;;;0.00;0.00;;;15.60;99.90;;;;;;5051716;28;20045;-84
2022/07/06 05:53:54;;;;;;;0.10;0.10;;;15.50;99.90;;;;;;5035547;28;20067;-85
2022/07/06 05:56:20;;;;;;;0.00;0.00;;;15.40;99.90;;;;;;5051580;28;20041;-85
2022/07/06 05:58:45;;;;;;;0.00;0.00;;;15.30;99.90;;;;;;5034994;28;20040;-85
2022/07/06 06:01:11;;;;;;;0.00;0.00;;;15.20;99.90;;;;;;5051672;28;20100;-83
2022/07/06 06:03:37;;;;;;;0.00;0.00;;;15.10;99.90;;;;;;5051612;28;20399;-83
2022/07/06 06:06:03;;;;;;;0.00;0.00;;;15.10;99.90;;;;;;5051749;28;20083;-83
2022/07/06 06:08:28;;;;;;;0.00;0.00;;;15.00;99.90;;;;;;5035074;28;20414;-83
2022/07/06 06:10:54;;;;;;;0.00;0.00;;;14.90;99.90;;;;;;5051801;28;20043;-83
2022/07/06 06:13:20;;;;;;;0.00;0.00;;;14.90;99.90;;;;;;5038833;28;20171;-83
2022/07/06 06:15:46;;;;;;;0.10;0.10;;;14.90;99.90;;;;;;5071487;28;20399;-83
2022/07/06 06:18:12;;;;;;;0.00;0.00;;;14.90;99.90;;;;;;5071600;28;20044;-85
2022/07/06 06:20:37;;;;;;;0.00;0.00;;;14.90;99.90;;;;;;5055288;28;20382;-85
2022/07/06 06:23:04;;;;;;;0.00;0.00;;;15.00;99.90;;;;;;5073480;28;20047;-84
2022/07/06 06:25:34;;;;;;;0.05;0.05;;;15.20;99.90;;;;;;5073170;28;20040;-85
2022/07/06 06:28:01;;;;;;;0.52;0.30;;;15.30;99.90;;;;;;5075173;28;20552;-85
2022/07/06 06:30:27;;;;;;;0.10;0.10;;;15.40;99.90;;;;;;5075359;28;20055;-84
2022/07/06 06:33:09;;;;;;;0.28;0.28;;;15.70;99.90;;;;;;5075429;28;20533;-85
2022/07/06 06:35:35;;;;;;;0.00;0.00;;;15.70;99.90;;;;;;5075652;28;20044;-85
2022/07/06 06:38:00;;;;;;;0.32;0.32;;;15.90;99.90;;;;;;5059034;28;20044;-84
2022/07/06 06:40:26;;;;;;;0.00;0.00;;;15.90;99.90;;;;;;5075136;28;20500;-85
2022/07/06 06:42:52;;;;;;;0.85;0.85;;;15.90;99.90;;;;;;5075377;28;20032;-85
2022/07/06 06:45:18;;;;;;;0.00;0.00;;;15.90;99.90;;;;;;5056549;28;20449;-85
2022/07/06 06:47:43;;;;;;;0.05;0.05;;;15.90;99.90;;;;;;5054955;28;20080;-84
2022/07/06 06:50:09;;;;;;;0.45;0.45;;;15.90;99.90;;;;;;5055069;28;20064;-84
2022/07/06 06:52:35;;;;;;;0.00;0.00;;;15.90;99.90;;;;;;5038285;28;20122;-84
2022/07/06 06:55:00;;;;;;;0.15;0.10;;;15.90;99.90;;;;;;5054738;28;20097;-84
2022/07/06 06:57:28;;;;;;;0.00;0.00;;;15.90;99.90;;;;;;5054697;28;20044;-84
2022/07/06 06:59:54;;;;;;;0.10;0.10;;;16.00;99.90;;;;;;5038194;28;20040;-84
2022/07/06 07:02:20;;;;;;;0.40;0.28;;;16.20;99.90;;;;;;5054704;28;20041;-84
2022/07/06 07:04:46;;;;;;;0.00;0.00;;;16.40;99.90;;;;;;5054698;28;20118;-84
2022/07/06 07:07:11;;;;;;;0.10;0.10;;;16.80;99.90;;;;;;5054821;28;20049;-82
2022/07/06 07:09:37;;;;;;;0.00;0.00;;;17.50;99.90;;;;;;5038014;28;20153;-82
2022/07/06 07:12:04;;;;;;;0.00;0.00;;;17.60;99.90;;;;;;5054667;28;20044;-82
2022/07/06 07:14:33;;;;;;;0.10;0.10;;;18.00;99.90;;;;;;5068408;28;20048;-82
2022/07/06 07:16:59;;;;;;;0.00;0.00;;;19.50;99.90;;;;;;5057762;28;20047;-82
2022/07/06 07:19:24;;;;;;;0.00;0.00;;;20.40;99.90;;;;;;5074397;28;20048;-82
2022/07/06 07:21:50;;;;;;;0.10;0.10;;;20.50;99.90;;;;;;5057916;28;20076;-82
2022/07/06 07:24:16;;;;;;;0.10;0.10;;;20.60;99.90;;;;;;5074389;28;20041;-85
2022/07/06 07:26:42;;;;;;;0.30;0.30;;;21.40;99.90;;;;;;5044656;28;20473;-85
2022/07/06 07:29:07;;;;;;;0.00;0.00;;;23.60;98.30;;;;;;5037562;28;20048;-85
2022/07/06 07:31:33;;;;;;;0.10;0.10;;;24.40;99.10;;;;;;5037366;28;20123;-85
2022/07/06 07:33:59;;;;;;;0.10;0.10;;;25.00;99.90;;;;;;5052870;28;20033;-85
2022/07/06 07:36:26;;;;;;;0.00;0.00;;;25.50;93.30;;;;;;5037241;28;20082;-85
2022/07/06 07:38:52;;;;;;;0.28;0.25;;;26.70;93.60;;;;;;5054010;28;20487;-85
2022/07/06 07:41:18;;;;;;;0.10;0.10;;;26.80;92.20;;;;;;5054281;28;20077;-84
2022/07/06 07:43:44;;;;;;;0.08;0.08;;;27.20;91.90;;;;;;5053811;28;20064;-84
2022/07/06 07:46:10;;;;;;;0.00;0.00;;;27.00;90.30;;;;;;5037190;28;20049;-83
2022/07/06 07:48:35;;;;;;;0.05;0.05;;;26.60;84.80;;;;;;5053744;28;20090;-83
2022/07/06 07:51:01;;;;;;;0.10;0.10;;;26.30;88.00;;;;;;5053746;28;20120;-84
2022/07/06 07:53:27;;;;;;;0.00;0.00;;;26.30;85.50;;;;;;5037347;28;20041;-84
2022/07/06 07:55:53;;;;;;;0.00;0.00;;;25.60;85.10;;;;;;5036995;28;20515;-83
2022/07/06 07:58:19;;;;;;;0.10;0.10;;;25.10;87.40;;;;;;5053795;28;20052;-85
2022/07/06 08:00:45;;;;;;;0.15;0.10;;;25.40;85.30;;;;;;5053577;28;20491;-85
2022/07/06 08:03:11;;;;;;;0.10;0.10;;;25.50;84.60;;;;;;5053799;28;20534;-85
2022/07/06 08:05:37;;;;;;;0.00;0.00;;;25.20;85.10;;;;;;5053545;28;20040;-85
2022/07/06 08:08:04;;;;;;;0.10;0.10;;;24.80;84.70;;;;;;5053368;28;20033;-85
2022/07/06 08:10:30;;;;;;;0.00;0.00;;;23.40;85.70;;;;;;5053443;28;20155;-85
2022/07/06 08:12:55;;;;;;;0.10;0.10;;;23.00;87.70;;;;;;5054009;28;20041;-84
2022/07/06 08:15:21;;;;;;;0.10;0.10;;;22.00;90.20;;;;;;5073398;28;20157;-83
2022/07/06 08:17:47;;;;;;;0.10;0.10;;;21.70;91.10;;;;;;5056595;28;20146;-83
2022/07/06 08:20:13;;;;;;;0.00;0.00;;;21.90;91.60;;;;;;5073483;28;20051;-83
2022/07/06 08:22:39;;;;;;;0.08;0.08;;;23.00;91.80;;;;;;5056684;28;20394;-84
2022/07/06 08:25:05;;;;;;;0.10;0.10;;;24.60;90.70;;;;;;5028606;28;20048;-83
2022/07/06 08:27:31;;;;;;;0.00;0.00;;;26.90;83.00;;;;;;5051641;28;20040;-83
2022/07/06 08:29:57;;;;;;;0.00;0.00;;;27.90;81.60;;;;;;5053239;28;20505;-85
2022/07/06 08:32:23;;;;;;;0.10;0.10;;;28.10;82.00;;;;;;5052980;28;20037;-84
2022/07/06 08:34:48;;;;;;;0.08;0.08;;;28.80;77.90;;;;;;5036692;28;20095;-84
2022/07/06 08:37:14;;;;;;;0.00;0.00;;;28.60;79.70;;;;;;5019909;28;20344;-83
2022/07/06 08:39:40;;;;;;;0.20;0.20;;;28.70;77.40;;;;;;5036321;28;20045;-84
2022/07/06 08:42:07;;;;;;;0.10;0.10;;;27.70;79.50;;;;;;5036266;28;20059;-84
2022/07/06 08:44:36;;;;;;;0.00;0.00;;;26.70;79.10;;;;;;5035862;28;20060;-84
2022/07/06 08:47:05;;;;;;;0.00;0.00;;;26.20;81.90;;;;;;5052563;28;20041;-85
2022/07/06 08:49:32;;;;;;;0.00;0.00;;;25.70;81.50;;;;;;5052823;28;20033;-85
2022/07/06 08:51:58;;;;;;;0.10;0.10;;;25.40;81.80;;;;;;5052579;28;20033;-86
2022/07/06 08:54:24;;;;;;;0.10;0.10;;;25.60;83.50;;;;;;5035994;28;20037;-85
2022/07/06 08:56:50;;;;;;;0.00;0.00;;;27.20;82.00;;;;;;5052373;28;20406;-85
2022/07/06 08:59:16;;;;;;;0.10;0.10;;;28.50;79.80;;;;;;5052689;28;20376;-85
2022/07/06 09:01:44;;;;;;;0.10;0.10;;;29.50;79.80;;;;;;5035816;28;20036;-85
2022/07/06 09:04:12;;;;;;;0.00;0.00;;;30.40;74.20;;;;;;5052535;28;20044;-86
2022/07/06 09:06:42;;;;;;;0.10;0.10;;;30.70;74.80;;;;;;5035873;28;20402;-86
2022/07/06 09:09:09;;;;;;;0.10;0.10;;;30.10;75.40;;;;;;5052341;28;20120;-86
2022/07/06 09:11:37;;;;;;;0.30;0.30;;;29.70;73.50;;;;;;5035557;28;20105;-86
2022/07/06 09:14:03;;;;;;;0.22;0.20;;;28.50;71.00;;;;;;5039666;28;20108;-86
2022/07/06 09:16:30;;;;;;;0.28;0.28;;;26.80;74.00;;;;;;5052203;28;20045;-85
2022/07/06 09:18:56;;;;;;;0.10;0.10;;;25.20;75.30;;;;;;5035818;28;20063;-86
2022/07/06 09:21:31;;;;;;;0.10;0.10;;;24.40;77.60;;;;;;5052181;28;20041;-85
2022/07/06 09:24:02;;;;;;;0.30;0.30;;;23.60;79.60;;;;;;5052459;28;20395;-85
2022/07/06 09:26:28;;;;;;;0.00;0.00;;;23.20;80.00;;;;;;5051038;28;20455;-85
2022/07/06 09:28:59;;;;;;;0.10;0.10;;;22.60;82.60;;;;;;5035541;28;20430;-85
2022/07/06 09:31:25;;;;;;;0.17;0.17;;;23.20;84.20;;;;;;5035559;28;20041;-85
2022/07/06 09:33:56;;;;;;;0.10;0.10;;;23.40;81.80;;;;;;5050905;28;20041;-85
2022/07/06 09:36:48;;;;;;;0.40;0.38;;;23.20;81.20;;;;;;5034970;28;20045;-85
2022/07/06 09:39:28;;;;;;;0.10;0.10;;;22.90;83.00;;;;;;5035575;28;20041;-85
2022/07/06 09:41:59;;;;;;;0.08;0.08;;;22.50;84.40;;;;;;5035500;28;20048;-85
2022/07/06 09:44:26;;;;;;;0.00;0.00;;;22.00;86.10;;;;;;5051727;28;20498;-85
2022/07/06 09:46:55;;;;;;;0.20;0.20;;;22.20;86.40;;;;;;5051670;28;20050;-85
2022/07/06 09:49:23;;;;;;;0.08;0.08;;;24.10;84.90;;;;;;5035520;28;20072;-85
2022/07/06 09:51:51;;;;;;;0.10;0.10;;;25.60;83.50;;;;;;5052222;28;20040;-85
2022/07/06 09:54:17;;;;;;;0.00;0.00;;;26.60;81.40;;;;;;5051778;28;20036;-84
2022/07/06 09:56:47;;;;;;;0.00;0.00;;;26.40;80.10;;;;;;5034927;28;20043;-84
2022/07/06 09:59:15;;;;;;;0.10;0.10;;;26.80;79.80;;;;;;5039111;28;20123;-84
2022/07/06 10:01:42;;;;;;;0.10;0.10;;;27.40;76.20;;;;;;5055988;28;20045;-84
2022/07/06 10:04:09;;;;;;;0.10;0.10;;;28.00;77.70;;;;;;5055684;28;20188;-84
2022/07/06 10:06:35;;;;;;;0.55;0.55;;;27.90;74.80;;;;;;5055809;28;20045;-84
2022/07/06 10:09:07;;;;;;;0.10;0.10;;;27.70;77.30;;;;;;5055929;28;20037;-84
2022/07/06 10:11:39;;;;;;;0.15;0.10;;;27.80;75.10;;;;;;5039109;28;20037;-84
2022/07/06 10:14:07;;;;;;;0.03;0.03;;;27.90;75.90;;;;;;5065659;28;20119;-83
2022/07/06 10:16:36;;;;;;;0.00;0.00;;;28.40;75.00;;;;;;5075576;28;20052;-83
2022/07/06 10:19:07;;;;;;;0.20;0.20;;;27.70;74.60;;;;;;5075574;28;20135;-83
2022/07/06 10:21:39;;;;;;;0.00;0.00;;;28.40;75.60;;;;;;5058797;28;20044;-83
2022/07/06 10:24:06;;;;;;;0.00;0.00;;;29.20;75.50;;;;;;5058929;28;20083;-83
2022/07/06 10:26:34;;;;;;;0.10;0.10;;;30.00;73.30;;;;;;5056704;28;20064;-85
2022/07/06 10:29:03;;;;;;;0.03;0.03;;;30.40;72.80;;;;;;5041928;28;20040;-86
2022/07/06 10:31:30;;;;;;;0.10;0.10;;;30.30;69.70;;;;;;5058309;28;20040;-86
2022/07/06 10:33:58;;;;;;;0.10;0.10;;;30.60;71.90;;;;;;5075121;28;20039;-85
2022/07/06 10:36:25;;;;;;;0.10;0.10;;;30.70;70.60;;;;;;5058450;28;20051;-85
2022/07/06 10:38:52;;;;;;;0.00;0.00;;;30.30;70.80;;;;;;5075180;28;20052;-85
2022/07/06 10:41:29;;;;;;;0.10;0.10;;;30.50;70.30;;;;;;5075087;28;20036;-85
2022/07/06 10:43:57;;;;;;;0.20;0.20;;;30.80;68.40;;;;;;5074835;28;20056;-86
2022/07/06 10:46:23;;;;;;;0.10;0.10;;;31.40;69.90;;;;;;5074952;28;20493;-86
2022/07/06 10:48:49;;;;;;;0.00;0.00;;;32.00;68.80;;;;;;5041977;28;20106;-85
2022/07/06 10:51:32;;;;;;;0.10;0.10;;;32.10;65.90;;;;;;5058483;28;20486;-85
2022/07/06 10:54:04;;;;;;;0.05;0.05;;;32.10;66.10;;;;;;5052372;28;20037;-85
2022/07/06 10:56:46;;;;;;;0.00;0.00;;;30.30;66.10;;;;;;5038241;28;20056;-85
2022/07/06 10:59:14;;;;;;;0.00;0.00;;;29.50;68.60;;;;;;5038185;28;20045;-85
2022/07/06 11:01:40;;;;;;;0.10;0.10;;;29.50;68.80;;;;;;5038131;28;20044;-84
2022/07/06 11:04:09;;;;;;;0.00;0.00;;;29.90;69.20;;;;;;5054975;28;20049;-84
2022/07/06 11:06:38;;;;;;;0.10;0.10;;;30.40;68.30;;;;;;5054645;28;20048;-84
2022/07/06 11:09:09;;;;;;;0.10;0.10;;;30.90;68.00;;;;;;5054266;28;20041;-84
2022/07/06 11:11:35;;;;;;;0.05;0.05;;;31.10;67.50;;;;;;5037887;28;20051;-84
2022/07/06 11:14:14;;;;;;;0.10;0.10;;;31.10;66.40;;;;;;5064087;28;20040;-84
2022/07/06 11:16:49;;;;;;;0.00;0.00;;;31.40;66.30;;;;;;5058178;28;20041;-84
2022/07/06 11:19:16;;;;;;;0.00;0.00;;;31.60;67.70;;;;;;5074538;28;20087;-83
2022/07/06 11:21:49;;;;;;;0.10;0.10;;;31.00;66.80;;;;;;5074385;28;20491;-83
2022/07/06 11:24:36;;;;;;;0.32;0.32;;;31.00;66.70;;;;;;5057883;28;20079;-83
2022/07/06 11:27:03;;;;;;;0.10;0.10;;;31.40;66.50;;;;;;5054691;28;20132;-83
2022/07/06 11:29:29;;;;;;;0.10;0.10;;;30.90;65.70;;;;;;5074044;28;20033;-83
2022/07/06 11:32:00;;;;;;;0.10;0.10;;;29.40;65.40;;;;;;5057172;28;20040;-84
2022/07/06 11:34:28;;;;;;;0.13;0.13;;;29.30;69.40;;;;;;5073002;28;20521;-83
2022/07/06 11:37:03;;;;;;;0.00;0.00;;;29.70;69.40;;;;;;5074137;28;20044;-84
2022/07/06 11:39:30;;;;;;;0.10;0.10;;;29.20;67.60;;;;;;5074107;28;20051;-83
2022/07/06 11:41:57;;;;;;;0.10;0.10;;;28.20;67.80;;;;;;5074032;28;20040;-83
2022/07/06 11:44:24;;;;;;;0.10;0.10;;;28.30;70.00;;;;;;5065623;28;20109;-83
2022/07/06 11:46:50;;;;;;;0.00;0.00;;;28.20;71.20;;;;;;5037226;28;20128;-83
2022/07/06 11:49:17;;;;;;;0.00;0.00;;;27.00;68.90;;;;;;5037187;28;20099;-83
2022/07/06 11:51:44;;;;;;;0.10;0.10;;;26.40;70.30;;;;;;5053887;28;20063;-85
2022/07/06 11:54:13;;;;;;;0.10;0.10;;;26.40;71.00;;;;;;5053822;28;20037;-86
2022/07/06 11:56:59;;;;;;;0.28;0.15;;;26.30;72.20;;;;;;5053743;28;20124;-86
2022/07/06 11:59:29;;;;;;;0.10;0.10;;;27.10;70.90;;;;;;5053686;28;20056;-86
2022/07/06 12:02:09;;;;;;;0.17;0.17;;;28.10;70.70;;;;;;5036901;28;20044;-86
2022/07/06 12:04:37;;;;;;;0.20;0.20;;;28.80;69.60;;;;;;5036937;28;20131;-86
2022/07/06 12:07:07;;;;;;;0.10;0.10;;;28.90;69.40;;;;;;5053590;28;20037;-83
2022/07/06 12:09:36;;;;;;;0.00;0.00;;;28.60;69.50;;;;;;5053832;28;20114;-83
2022/07/06 12:12:03;;;;;;;0.00;0.00;;;28.10;69.30;;;;;;5036731;28;20037;-83
2022/07/06 12:14:34;;;;;;;0.03;0.03;;;27.70;69.80;;;;;;5066981;28;20063;-84
2022/07/06 12:17:04;;;;;;;0.00;0.00;;;26.80;69.20;;;;;;5073295;28;20040;-83
2022/07/06 12:19:30;;;;;;;0.00;0.00;;;26.60;69.70;;;;;;5073012;28;20036;-82
2022/07/06 12:21:56;;;;;;;0.20;0.20;;;26.40;70.60;;;;;;5056311;28;20036;-83
2022/07/06 12:24:28;;;;;;;0.10;0.10;;;26.60;70.10;;;;;;5056642;28;20450;-83
2022/07/06 12:26:54;;;;;;;0.10;0.10;;;27.00;69.70;;;;;;5071132;28;20036;-83
2022/07/06 12:29:22;;;;;;;0.00;0.00;;;27.00;68.70;;;;;;5072691;28;20550;-83
2022/07/06 12:31:52;;;;;;;0.40;0.40;;;27.30;69.00;;;;;;5072919;28;20037;-83
2022/07/06 12:34:26;;;;;;;0.08;0.08;;;27.40;69.20;;;;;;5066698;28;20040;-83
2022/07/06 12:36:53;;;;;;;0.00;0.00;;;27.40;68.70;;;;;;5052882;28;20044;-83
2022/07/06 12:39:27;;;;;;;0.08;0.08;;;26.70;68.30;;;;;;5052823;28;20491;-83
2022/07/06 12:41:58;;;;;;;0.00;0.00;;;26.30;69.60;;;;;;5036645;28;20037;-86
2022/07/06 12:44:25;;;;;;;0.00;0.00;;;25.40;70.00;;;;;;5036637;28;20065;-85
2022/07/06 12:47:05;;;;;;;0.00;0.00;;;25.00;69.90;;;;;;5019864;28;20388;-85
2022/07/06 12:49:32;;;;;;;0.10;0.10;;;24.70;71.20;;;;;;5052791;28;20040;-85
2022/07/06 12:52:06;;;;;;;0.03;0.03;;;24.40;71.90;;;;;;5052895;28;20065;-85